F/V Anna Mamm Mari — FOHD — position and weather

sailwx.info

Track history (hours):
 
Tides and Currents Weather Stations Pressure Air Temp Water Temp Dewpoint Dewpoint Depression Visibility Wind Speed Wind Dir Waves Ship Positions

F/V Anna Mamm Mari

Last reported at 2015-Aug-31 08:33 UTC. Time now 2015-Aug-31 08:55 UTC.
Position N 47°44' W 003°22'.

Length 17 m.

Type: Fishing. MMSI: 228393000.

Date/timePositionNaut miles runAvg speedWind from/ knotsBaromVisibWave heightAir tempDewpointWater temp
2015-Aug-31 08:33N 47°44' W 003°22'0 0.0
2015-Aug-31 07:33N 47°44' W 003°22'0 0.2
2015-Aug-31 06:33N 47°44' W 003°22'0 0.0
2015-Aug-31 05:33N 47°44' W 003°22'0 0.2
2015-Aug-31 04:33N 47°44' W 003°22'0 0.0
2015-Aug-31 03:33N 47°44' W 003°22'0 0.0
2015-Aug-31 02:33N 47°44' W 003°22'0 0.0
2015-Aug-31 01:33N 47°44' W 003°22'0 0.0
2015-Aug-31 00:33N 47°44' W 003°22'0 0.0
2015-Aug-30 23:33N 47°44' W 003°22'0 0.0
2015-Aug-30 22:33N 47°44' W 003°22'0 0.0
2015-Aug-30 21:33N 47°44' W 003°22'3 3.0
2015-Aug-30 20:33N 47°41' W 003°22'8 8.3
2015-Aug-30 19:33N 47°32' W 003°22'8 8.3
2015-Aug-30 18:33N 47°24' W 003°20'8 7.9
2015-Aug-30 17:33N 47°16' W 003°18'25 6.0
2015-Aug-30 13:25N 46°52' W 003°13'0 0.5
2015-Aug-30 12:32N 46°52' W 003°13'1 0.9
2015-Aug-30 11:30N 46°52' W 003°15'1 0.7
2015-Aug-30 10:29N 46°52' W 003°14'5 4.5
2015-Aug-30 09:29N 46°51' W 003°07'3 3.0
2015-Aug-30 08:32N 46°52' W 003°03'2 1.7
2015-Aug-30 07:33N 46°52' W 003°05'2 1.9
2015-Aug-30 06:27N 46°51' W 003°08'3 0.1
2015-Aug-29 04:33N 46°51' W 003°12'0 0.0
2015-Aug-29 03:33N 46°51' W 003°12'0 0.0
2015-Aug-29 02:30N 46°51' W 003°12'0 0.1
2015-Aug-29 01:18N 46°51' W 003°12'0 0.0
2015-Aug-28 21:12N 46°51' W 003°12'0 0.0
2015-Aug-28 20:30N 46°51' W 003°12'0 0.0
2015-Aug-28 19:26N 46°51' W 003°12'52 1.2
2015-Aug-26 22:31N 46°32' W 002°01'7 7.7
2015-Aug-26 21:33N 46°29' W 001°51'3 3.1
2015-Aug-26 20:33N 46°30' W 001°47'0 0.0
2015-Aug-26 19:33N 46°30' W 001°47'2 2.4
2015-Aug-26 18:33N 46°29' W 001°50'9 8.6
2015-Aug-26 17:33N 46°32' W 002°02'8 8.3
2015-Aug-26 16:32N 46°35' W 002°13'  
2015-Aug-22 23:30N 46°33' W 002°05'8 8.5
2015-Aug-22 22:33N 46°30' W 001°54'5 4.7
2015-Aug-22 21:33N 46°30' W 001°47'0 0.2
2015-Aug-22 20:33N 46°30' W 001°47'5 4.9
2015-Aug-22 19:33N 46°30' W 001°54'9 9.2
2015-Aug-22 18:32N 46°33' W 002°07'43 3.9
2015-Aug-22 07:32N 46°50' W 003°05'1 1.0
2015-Aug-22 06:33N 46°50' W 003°07'2 1.9
2015-Aug-22 05:33N 46°50' W 003°09'1 1.3
2015-Aug-22 04:33N 46°50' W 003°07'0 0.1
2015-Aug-22 03:33N 46°50' W 003°08'0 0.1
2015-Aug-22 02:33N 46°49' W 003°08'0 0.0
2015-Aug-22 01:33N 46°49' W 003°08'0 0.0
2015-Aug-22 00:33N 46°49' W 003°08'0 0.0
2015-Aug-21 23:33N 46°49' W 003°08'0 0.0
2015-Aug-21 22:33N 46°49' W 003°07'0 0.0
2015-Aug-21 21:33N 46°49' W 003°07'0 0.0
2015-Aug-21 20:33N 46°49' W 003°07'1 1.1
2015-Aug-21 19:33N 46°50' W 003°09'1 0.6
2015-Aug-21 18:33N 46°50' W 003°09'6 5.9
2015-Aug-21 17:33N 46°52' W 003°17'3 2.6
2015-Aug-21 16:33N 46°52' W 003°21'9 9.3
2015-Aug-21 15:33N 46°54' W 003°35'10 8.9
2015-Aug-21 14:25N 46°56' W 003°49'6 7.3
2015-Aug-21 13:33N 46°58' W 003°58'2 2.1
2015-Aug-21 12:33N 47°00' W 003°58'1 1.2
2015-Aug-21 11:28N 46°59' W 003°59'1 0.6
2015-Aug-21 10:33N 46°59' W 003°59'1 1.0
2015-Aug-21 09:33N 47°00' W 004°00'  
Track history (hours):
 
Tides and Currents Weather Stations Pressure Air Temp Water Temp Dewpoint Dewpoint Depression Visibility Wind Speed Wind Dir Waves Ship Positions

F/V Anna Mamm Mari

Last reported at 2015-Aug-31 08:33 UTC. Time now 2015-Aug-31 08:55 UTC.
Position N 47°44' W 003°22'.

Length 17 m.

Type: Fishing. MMSI: 228393000.

Date/timePositionNaut miles runAvg speedWind from/ knotsBaromVisibWave heightAir tempDewpointWater temp
2015-Aug-31 08:33N 47°44' W 003°22'0 0.0
2015-Aug-31 07:33N 47°44' W 003°22'0 0.2
2015-Aug-31 06:33N 47°44' W 003°22'0 0.0
2015-Aug-31 05:33N 47°44' W 003°22'0 0.2
2015-Aug-31 04:33N 47°44' W 003°22'0 0.0
2015-Aug-31 03:33N 47°44' W 003°22'0 0.0
2015-Aug-31 02:33N 47°44' W 003°22'0 0.0
2015-Aug-31 01:33N 47°44' W 003°22'0 0.0
2015-Aug-31 00:33N 47°44' W 003°22'0 0.0
2015-Aug-30 23:33N 47°44' W 003°22'0 0.0
2015-Aug-30 22:33N 47°44' W 003°22'0 0.0
2015-Aug-30 21:33N 47°44' W 003°22'3 3.0
2015-Aug-30 20:33N 47°41' W 003°22'8 8.3
2015-Aug-30 19:33N 47°32' W 003°22'8 8.3
2015-Aug-30 18:33N 47°24' W 003°20'8 7.9
2015-Aug-30 17:33N 47°16' W 003°18'25 6.0
2015-Aug-30 13:25N 46°52' W 003°13'0 0.5
2015-Aug-30 12:32N 46°52' W 003°13'1 0.9
2015-Aug-30 11:30N 46°52' W 003°15'1 0.7
2015-Aug-30 10:29N 46°52' W 003°14'5 4.5
2015-Aug-30 09:29N 46°51' W 003°07'3 3.0
2015-Aug-30 08:32N 46°52' W 003°03'2 1.7
2015-Aug-30 07:33N 46°52' W 003°05'2 1.9
2015-Aug-30 06:27N 46°51' W 003°08'3 0.1
2015-Aug-29 04:33N 46°51' W 003°12'0 0.0
2015-Aug-29 03:33N 46°51' W 003°12'0 0.0
2015-Aug-29 02:30N 46°51' W 003°12'0 0.1
2015-Aug-29 01:18N 46°51' W 003°12'0 0.0
2015-Aug-28 21:12N 46°51' W 003°12'0 0.0
2015-Aug-28 20:30N 46°51' W 003°12'0 0.0
2015-Aug-28 19:26N 46°51' W 003°12'52 1.2
2015-Aug-26 22:31N 46°32' W 002°01'7 7.7
2015-Aug-26 21:33N 46°29' W 001°51'3 3.1
2015-Aug-26 20:33N 46°30' W 001°47'0 0.0
2015-Aug-26 19:33N 46°30' W 001°47'2 2.4
2015-Aug-26 18:33N 46°29' W 001°50'9 8.6
2015-Aug-26 17:33N 46°32' W 002°02'8 8.3
2015-Aug-26 16:32N 46°35' W 002°13'  
2015-Aug-22 23:30N 46°33' W 002°05'8 8.5
2015-Aug-22 22:33N 46°30' W 001°54'5 4.7
2015-Aug-22 21:33N 46°30' W 001°47'0 0.2
2015-Aug-22 20:33N 46°30' W 001°47'5 4.9
2015-Aug-22 19:33N 46°30' W 001°54'9 9.2
2015-Aug-22 18:32N 46°33' W 002°07'43 3.9
2015-Aug-22 07:32N 46°50' W 003°05'1 1.0
2015-Aug-22 06:33N 46°50' W 003°07'2 1.9
2015-Aug-22 05:33N 46°50' W 003°09'1 1.3
2015-Aug-22 04:33N 46°50' W 003°07'0 0.1
2015-Aug-22 03:33N 46°50' W 003°08'0 0.1
2015-Aug-22 02:33N 46°49' W 003°08'0 0.0
2015-Aug-22 01:33N 46°49' W 003°08'0 0.0
2015-Aug-22 00:33N 46°49' W 003°08'0 0.0
2015-Aug-21 23:33N 46°49' W 003°08'0 0.0
2015-Aug-21 22:33N 46°49' W 003°07'0 0.0
2015-Aug-21 21:33N 46°49' W 003°07'0 0.0
2015-Aug-21 20:33N 46°49' W 003°07'1 1.1
2015-Aug-21 19:33N 46°50' W 003°09'1 0.6
2015-Aug-21 18:33N 46°50' W 003°09'6 5.9
2015-Aug-21 17:33N 46°52' W 003°17'3 2.6
2015-Aug-21 16:33N 46°52' W 003°21'9 9.3
2015-Aug-21 15:33N 46°54' W 003°35'10 8.9
2015-Aug-21 14:25N 46°56' W 003°49'6 7.3
2015-Aug-21 13:33N 46°58' W 003°58'2 2.1
2015-Aug-21 12:33N 47°00' W 003°58'1 1.2
2015-Aug-21 11:28N 46°59' W 003°59'1 0.6
2015-Aug-21 10:33N 46°59' W 003°59'1 1.0
2015-Aug-21 09:33N 47°00' W 004°00'  

Dump ship's entire track history